Jennings, LA

4:58 AM CDT on October 19, 2017 (GMT -0500)
Jennings

Weather History for K3R7 - November, 2012

Change the Weather History Date:

Thursday, November 22, 2012

  Actual Average (KCWF) Record (KCWF)
Temperature  
Mean Temperature 60 °F -  
Max Temperature 74 °F 68 °F 80 °F (1999)
Min Temperature 45 °F 52 °F 32 °F (2000)
Degree Days  
Heating Degree Days 6    
Growing Degree Days 10 (Base 50)    
Moisture  
Dew Point 48 °F    
Average Humidity 70    
Maximum Humidity 98    
Minimum Humidity 38    
Precipitation  
Precipitation 0.00 in - - ()
Sea Level Pressure  
Sea Level Pressure 30.19 in    
Wind  
Wind Speed 2 mph ()    
Max Wind Speed 9 mph    
Max Gust Speed -    
Visibility 10.0 miles    
Events      
Averages and records for this station are not official NWS values.
T = Trace of Precipitation, MM = Missing Value Source: Averaged Metar Reports

Daily Weather History Graph

Daily Weather History Graph

Search for Another Location

Airport or City:

Trip Planner

Search our weather history database for the weather conditions in past years. The results will help you decide how hot, cold, wet, or windy it might be!

Date:

Astronomy

Nov. 22, 2012 Rise Set
Actual Time 6:42 AM CST 5:11 PM CST
Civil Twilight 6:16 AM CST 5:36 PM CST
Nautical Twilight 5:47 AM CST 6:06 PM CST
Astronomical Twilight 5:18 AM CST 6:35 PM CST
Moon 1:38 PM CST (11/22) 1:24 AM CST (11/22)
Length of Visible Light 11h 20m
Length of Day
10h 28m
Waxing Gibbous, 71% of the Moon is Illuminated
Nov 22
Waxing Gibbous
Nov 28
Full
Dec 6
Last Quarter
Dec 13
New
Dec 19
First Quarter

Hourly Weather History & Observations

Time (CST) Temp. Windchill Dew Point Humidity Pressure Visibility Wind Dir Wind Speed Gust Speed Precip Events Conditions
12:15 AM 48.4 °F - 45.9 °F 91% 30.19 in 10.0 mi Calm Calm - N/A   Clear
12:35 AM 48.0 °F - 45.9 °F 92% 30.19 in 10.0 mi Calm Calm - N/A   Clear
12:55 AM 48.7 °F - 46.4 °F 92% 30.18 in 10.0 mi Calm Calm - N/A   Clear
1:15 AM 48.2 °F - 46.2 °F 93% 30.19 in 10.0 mi Calm Calm - N/A   Clear
1:35 AM 47.5 °F - 45.9 °F 94% 30.19 in 10.0 mi Calm Calm - N/A   Clear
1:55 AM 47.3 °F - 46.2 °F 96% 30.18 in 10.0 mi Calm Calm - N/A   Clear
2:15 AM 46.9 °F - 45.7 °F 95% 30.18 in 10.0 mi Calm Calm - N/A   Clear
2:35 AM 46.6 °F - 45.5 °F 96% 30.18 in 10.0 mi Calm Calm - N/A   Clear
2:55 AM 46.6 °F - 46.0 °F 98% 30.18 in 10.0 mi Calm Calm - N/A   Clear
3:15 AM 46.4 °F - 45.7 °F 97% 30.18 in 10.0 mi Calm Calm - N/A   Clear
3:35 AM 45.7 °F - 44.2 °F 95% 30.18 in 10.0 mi Calm Calm - N/A   Clear
3:55 AM 45.5 °F - 43.7 °F 93% 30.18 in 10.0 mi Calm Calm - N/A   Clear
4:15 AM 46.4 °F - 44.2 °F 92% 30.18 in 10.0 mi Calm Calm - N/A   Clear
4:35 AM 46.0 °F - 44.1 °F 93% 30.18 in 10.0 mi Calm Calm - N/A   Clear
4:55 AM 45.1 °F - 42.8 °F 91% 30.17 in 10.0 mi Calm Calm - N/A   Clear
5:15 AM 45.5 °F - 43.5 °F 93% 30.17 in 10.0 mi Calm Calm - N/A   Clear
5:35 AM 46.6 °F - 44.6 °F 93% 30.18 in 10.0 mi Calm Calm - N/A   Clear
5:55 AM 46.8 °F - 44.4 °F 92% 30.18 in 10.0 mi Calm Calm - N/A   Clear
6:15 AM 45.7 °F 44.4 °F 43.5 °F 92% 30.18 in 10.0 mi East 3.5 mph - N/A   Clear
6:35 AM 46.0 °F - 43.7 °F 92% 30.19 in 10.0 mi Calm Calm - N/A   Clear
6:55 AM 47.5 °F - 43.5 °F 86% 30.19 in 10.0 mi Calm Calm - N/A   Clear
7:15 AM 48.0 °F - 44.1 °F 86% 30.20 in 10.0 mi Calm Calm - N/A   Clear
7:35 AM 50.5 °F - 47.1 °F 88% 30.20 in 10.0 mi Calm Calm - N/A   Clear
7:55 AM 52.5 °F - 49.1 °F 88% 30.21 in 10.0 mi West 4.6 mph - N/A   Clear
8:15 AM 54.9 °F - 49.3 °F 81% 30.22 in 10.0 mi Calm Calm - N/A   Clear
8:35 AM 57.9 °F - 47.1 °F 67% 30.22 in 10.0 mi SE 4.6 mph - N/A   Clear
8:55 AM 59.9 °F - 47.5 °F 64% 30.23 in 7.0 mi SE 3.5 mph - N/A   Clear
9:15 AM 61.0 °F - 48.0 °F 62% 30.23 in 10.0 mi Calm Calm - N/A   Clear
9:35 AM 63.1 °F - 49.5 °F 61% 30.24 in 10.0 mi Calm Calm - N/A   Clear
9:55 AM 64.9 °F - 51.1 °F 61% 30.24 in 10.0 mi Calm Calm - N/A   Clear
10:15 AM 65.1 °F - 50.9 °F 60% 30.24 in 10.0 mi Calm Calm - N/A   Clear
10:35 AM 67.1 °F - 50.9 °F 56% 30.24 in 10.0 mi Calm Calm - N/A   Clear
10:55 AM 69.1 °F - 51.4 °F 53% 30.23 in 10.0 mi Calm Calm - N/A   Clear
11:15 AM 70.5 °F - 50.7 °F 49% 30.23 in 10.0 mi West 3.5 mph - N/A   Clear
11:35 AM 71.8 °F - 48.6 °F 44% 30.22 in 10.0 mi WSW 3.5 mph - N/A   Clear
11:55 AM 72.7 °F - 48.0 °F 42% 30.21 in 10.0 mi South 3.5 mph - N/A   Clear
12:15 PM 73.6 °F - 46.9 °F 39% 30.20 in 10.0 mi SW 5.8 mph - N/A   Clear
12:35 PM 72.9 °F - 46.8 °F 39% 30.19 in 10.0 mi SSW 3.5 mph - N/A   Clear
12:55 PM 73.6 °F - 47.7 °F 40% 30.18 in 10.0 mi South 8.1 mph - N/A   Clear
1:15 PM 73.9 °F - 47.3 °F 39% 30.17 in 10.0 mi South 8.1 mph - N/A   Clear
1:35 PM 74.5 °F - 47.5 °F 38% 30.16 in 10.0 mi SSW 5.8 mph - N/A   Clear
1:55 PM 73.9 °F - 47.5 °F 39% 30.16 in 10.0 mi South 9.2 mph - N/A   Clear
2:15 PM 73.4 °F - 47.7 °F 40% 30.16 in 10.0 mi SW 8.1 mph - N/A   Clear
2:35 PM 73.9 °F - 48.0 °F 40% 30.16 in 10.0 mi South 3.5 mph - N/A   Clear
2:55 PM 73.9 °F - 48.9 °F 41% 30.15 in 10.0 mi SW 5.8 mph - N/A   Clear
3:15 PM 73.9 °F - 49.3 °F 42% 30.15 in 10.0 mi South 6.9 mph - N/A   Clear
3:35 PM 73.2 °F - 48.2 °F 41% 30.15 in 10.0 mi SSW 6.9 mph - N/A   Clear
3:55 PM 72.9 °F - 49.3 °F 43% 30.15 in 10.0 mi SSW 6.9 mph - N/A   Clear
4:15 PM 71.6 °F - 49.6 °F 46% 30.15 in 10.0 mi SW 5.8 mph - N/A   Clear
4:35 PM 71.6 °F - 50.9 °F 48% 30.15 in 10.0 mi SW 6.9 mph - N/A   Clear
4:55 PM 69.8 °F - 51.3 °F 52% 30.15 in 10.0 mi SSW 3.5 mph - N/A   Clear
5:15 PM 68.9 °F - 51.6 °F 54% 30.15 in 10.0 mi SSW 3.5 mph - N/A   Scattered Clouds
5:35 PM 66.0 °F - 52.0 °F 60% 30.15 in 10.0 mi South 3.5 mph - N/A   Scattered Clouds
5:55 PM 65.1 °F - 52.3 °F 63% 30.16 in 10.0 mi South 3.5 mph - N/A   Clear
6:15 PM 63.3 °F - 52.3 °F 67% 30.16 in 10.0 mi South 4.6 mph - N/A   Clear
6:35 PM 62.8 °F - 52.2 °F 68% 30.17 in 10.0 mi South 3.5 mph - N/A   Clear
6:55 PM 62.6 °F - 52.2 °F 69% 30.17 in 10.0 mi South 3.5 mph - N/A   Clear
7:15 PM 61.7 °F - 52.5 °F 72% 30.18 in 10.0 mi South 5.8 mph - N/A   Clear
7:35 PM 61.7 °F - 53.2 °F 74% 30.18 in 10.0 mi South 4.6 mph - N/A   Clear
7:55 PM 62.6 °F - 52.7 °F 70% 30.18 in 10.0 mi SSE 6.9 mph - N/A   Clear
8:15 PM 62.1 °F - 51.4 °F 68% 30.18 in 10.0 mi SSE 5.8 mph - N/A   Clear
8:35 PM 61.7 °F - 51.3 °F 69% 30.18 in 10.0 mi SSE 5.8 mph - N/A   Clear
8:55 PM 61.5 °F - 51.1 °F 69% 30.18 in 10.0 mi SSE 4.6 mph - N/A   Clear
9:15 PM 60.8 °F - 50.9 °F 70% 30.18 in 10.0 mi SSE 4.6 mph - N/A   Clear
9:35 PM 60.6 °F - 51.1 °F 71% 30.19 in 10.0 mi SSE 3.5 mph - N/A   Clear
9:55 PM 59.9 °F - 51.1 °F 73% 30.20 in 10.0 mi SSE 3.5 mph - N/A   Clear
10:15 PM 58.8 °F - 51.1 °F 75% 30.20 in 10.0 mi SSE 3.5 mph - N/A   Scattered Clouds
10:35 PM 58.8 °F - 50.9 °F 75% 30.20 in 10.0 mi South 3.5 mph - N/A   Mostly Cloudy
10:55 PM 58.3 °F - 51.4 °F 78% 30.20 in 10.0 mi South 3.5 mph - N/A   Overcast
11:15 PM 58.5 °F - 51.8 °F 79% 30.20 in 10.0 mi SSE 3.5 mph - N/A   Mostly Cloudy
11:35 PM 59.4 °F - 52.7 °F 79% 30.19 in 10.0 mi SE 4.6 mph - N/A   Overcast
11:55 PM 59.5 °F - 52.9 °F 79% 30.19 in 10.0 mi SE 4.6 mph - N/A   Mostly Cloudy